Time;durP1;ratioP1;P1;durP2;ratioP2;P2;SDS_P1;SDS_P2;PMS_P1;PMS_P2;Temp;Humidity;BMP_temperature;BMP_pressure;BME280_temperature;BME280_humidity;BME280_pressure;Samples;Min_cycle;Max_cycle;Signal;HPM_P1;HPM_P2
2024/02/16 00:00:12;;;;;;;21.45;13.10;;;;;;;11.23;67.36;100544.03;4863644;28;96843;-80
2024/02/16 00:02:40;;;;;;;20.63;12.95;;;;;;;11.26;67.11;100543.94;4878418;28;96990;-80
2024/02/16 00:05:07;;;;;;;21.00;13.35;;;;;;;11.02;67.54;100537.69;4882064;28;97523;-80
2024/02/16 00:07:37;;;;;;;22.98;13.30;;;;;;;10.94;67.69;100534.47;4881705;28;98109;-79
2024/02/16 00:10:04;;;;;;;23.30;14.00;;;;;;;10.99;67.51;100532.53;4850098;28;96831;-80
2024/02/16 00:12:35;;;;;;;27.25;13.45;;;;;;;10.91;67.95;100536.31;4896118;28;97200;-79
2024/02/16 00:15:02;;;;;;;23.20;13.75;;;;;;;10.77;67.84;100531.53;4851717;28;101198;-80
2024/02/16 00:17:28;;;;;;;24.58;13.60;;;;;;;10.76;68.24;100520.19;4848931;28;101271;-80
2024/02/16 00:19:57;;;;;;;23.88;14.45;;;;;;;10.78;68.08;100525.38;4850162;28;96790;-80
2024/02/16 00:22:23;;;;;;;20.13;12.85;;;;;;;10.79;68.26;100520.06;4865522;28;96923;-80
2024/02/16 00:24:49;;;;;;;24.10;14.00;;;;;;;10.83;68.13;100521.69;4882104;28;97901;-80
2024/02/16 00:27:15;;;;;;;18.70;12.82;;;;;;;10.90;67.55;100517.09;4880807;28;97467;-80
2024/02/16 00:29:41;;;;;;;24.95;14.13;;;;;;;10.81;67.70;100522.63;4866697;28;96826;-79
2024/02/16 00:32:07;;;;;;;21.52;13.18;;;;;;;10.81;67.63;100515.63;4865197;28;98833;-79
2024/02/16 00:34:34;;;;;;;19.63;12.32;;;;;;;10.73;68.00;100520.25;4899225;28;97772;-80
2024/02/16 00:37:00;;;;;;;23.77;14.32;;;;;;;10.67;68.48;100522.22;4853485;28;101035;-80
2024/02/16 00:39:26;;;;;;;23.48;13.82;;;;;;;10.64;68.34;100520.53;4867241;28;97237;-80
2024/02/16 00:41:51;;;;;;;22.63;13.95;;;;;;;10.64;68.21;100513.50;4865700;28;96889;-79
2024/02/16 00:44:17;;;;;;;21.13;13.60;;;;;;;10.71;68.16;100519.47;4865684;28;101184;-80
2024/02/16 00:46:43;;;;;;;21.52;13.68;;;;;;;10.60;68.39;100513.69;4882052;28;97415;-79
2024/02/16 00:49:10;;;;;;;25.55;13.27;;;;;;;10.63;68.24;100514.44;4867474;28;96887;-80
2024/02/16 00:51:39;;;;;;;25.17;13.82;;;;;;;10.56;68.10;100517.28;4849793;28;97267;-80
2024/02/16 00:54:05;;;;;;;20.17;12.98;;;;;;;10.41;68.75;100513.38;4856957;28;101162;-80
2024/02/16 00:56:32;;;;;;;22.10;13.13;;;;;;;10.44;68.93;100515.88;4871916;28;101148;-80
2024/02/16 00:58:57;;;;;;;21.35;13.63;;;;;;;10.37;68.36;100517.00;4879257;28;96809;-80
2024/02/16 01:01:24;;;;;;;24.02;14.52;;;;;;;10.28;68.81;100520.75;4846362;28;97037;-80
2024/02/16 01:03:51;;;;;;;26.92;13.98;;;;;;;10.41;68.55;100523.84;4878451;28;97523;-79
2024/02/16 01:06:17;;;;;;;23.10;14.20;;;;;;;10.30;68.95;100516.34;4872282;28;98123;-80
2024/02/16 01:08:43;;;;;;;21.65;13.38;;;;;;;10.33;68.47;100513.63;4853482;28;97667;-80
2024/02/16 01:11:09;;;;;;;26.17;14.90;;;;;;;10.22;68.88;100522.69;4865289;28;96857;-79
2024/02/16 01:13:34;;;;;;;23.00;14.45;;;;;;;10.20;69.31;100520.94;4877580;28;98913;-80
2024/02/16 01:16:00;;;;;;;25.25;15.55;;;;;;;10.22;68.63;100510.41;4877034;28;97369;-80
2024/02/16 01:18:29;;;;;;;22.20;14.73;;;;;;;10.25;68.39;100510.31;4860627;28;97254;-79
2024/02/16 01:20:54;;;;;;;30.52;16.67;;;;;;;10.08;68.85;100517.81;4863476;28;97424;-79
2024/02/16 01:23:20;;;;;;;22.02;14.45;;;;;;;10.13;68.63;100518.56;4867139;28;96780;-80
2024/02/16 01:25:46;;;;;;;21.65;15.10;;;;;;;10.12;68.43;100522.06;4859179;28;97897;-80
2024/02/16 01:28:12;;;;;;;24.67;15.25;;;;;;;10.06;68.94;100517.84;4829113;29;97015;-80
2024/02/16 01:30:39;;;;;;;25.95;15.63;;;;;;;10.02;68.88;100520.63;4857192;28;96987;-80
2024/02/16 01:33:05;;;;;;;24.77;15.52;;;;;;;10.22;68.57;100509.56;4870466;28;97611;-79
2024/02/16 01:35:32;;;;;;;25.45;16.48;;;;;;;9.90;68.97;100513.97;4856911;28;100162;-79
2024/02/16 01:37:57;;;;;;;25.67;15.93;;;;;;;9.93;69.12;100512.09;4863612;28;96719;-79
2024/02/16 01:40:25;;;;;;;26.17;15.35;;;;;;;9.82;69.02;100511.53;4844575;29;96892;-79
2024/02/16 01:42:52;;;;;;;22.05;14.00;;;;;;;9.84;69.26;100509.75;4861067;29;98534;-80
2024/02/16 01:45:18;;;;;;;23.42;15.70;;;;;;;9.83;69.00;100513.28;4866265;28;97517;-80
2024/02/16 01:47:47;;;;;;;30.10;16.33;;;;;;;9.71;69.64;100508.34;4866536;28;96791;-79
2024/02/16 01:50:14;;;;;;;26.17;16.30;;;;;;;9.77;69.42;100502.94;4878772;28;96738;-79
2024/02/16 01:52:40;;;;;;;24.45;14.20;;;;;;;9.79;68.94;100509.00;4877978;28;97401;-79
2024/02/16 01:55:09;;;;;;;25.52;14.85;;;;;;;9.59;69.28;100500.84;4862602;28;97529;-79
2024/02/16 01:57:36;;;;;;;26.17;15.15;;;;;;;9.67;69.61;100506.75;4877380;28;97498;-79
2024/02/16 02:00:03;;;;;;;23.30;15.77;;;;;;;9.65;69.18;100498.03;4871889;28;96829;-79
2024/02/16 02:02:30;;;;;;;23.58;15.73;;;;;;;9.58;69.75;100491.25;4873037;28;97220;-78
2024/02/16 02:04:56;;;;;;;26.95;16.27;;;;;;;9.53;69.39;100486.13;4872778;28;98072;-79
2024/02/16 02:07:26;;;;;;;23.80;15.77;;;;;;;9.55;69.65;100489.59;4881855;28;96856;-79
2024/02/16 02:09:54;;;;;;;23.15;14.90;;;;;;;9.54;69.62;100477.38;4880843;28;96781;-79
2024/02/16 02:12:20;;;;;;;24.55;14.88;;;;;;;9.66;69.03;100481.44;4880510;28;97594;-79
2024/02/16 02:14:46;;;;;;;27.52;16.00;;;;;;;9.61;69.42;100484.16;4879791;28;97154;-80
2024/02/16 02:17:12;;;;;;;27.73;16.67;;;;;;;9.56;69.88;100472.09;4881267;28;96743;-80
2024/02/16 02:19:40;;;;;;;27.38;17.30;;;;;;;9.59;69.56;100472.84;4865574;28;96785;-79
2024/02/16 02:22:24;;;;;;;22.23;14.30;;;;;;;9.72;69.27;100471.63;4849080;29;101946;-79
2024/02/16 02:24:49;;;;;;;27.98;15.95;;;;;;;9.89;68.72;100475.50;4870558;28;97925;-79
2024/02/16 02:27:21;;;;;;;22.65;14.98;;;;;;;9.87;67.88;100467.72;4878849;28;96707;-79
2024/02/16 02:29:47;;;;;;;21.10;14.68;;;;;;;9.88;68.10;100458.06;4866620;28;96703;-78
2024/02/16 02:32:13;;;;;;;22.58;14.98;;;;;;;9.97;67.99;100465.66;4858533;28;101065;-79
2024/02/16 02:34:39;;;;;;;24.05;14.30;;;;;;;9.98;67.63;100459.53;4863726;28;97323;-79
2024/02/16 02:37:05;;;;;;;21.73;13.80;;;;;;;9.98;67.67;100457.78;4858671;29;96807;-77
2024/02/16 02:39:31;;;;;;;23.92;16.00;;;;;;;9.98;67.33;100454.28;4861991;28;96826;-81
2024/02/16 02:42:14;;;;;;;21.38;13.80;;;;;;;9.94;67.66;100442.16;4866706;28;97997;-78
2024/02/16 02:44:40;;;;;;;21.80;14.02;;;;;;;9.93;67.23;100454.41;4877577;28;97898;-77
2024/02/16 02:47:06;;;;;;;24.48;14.32;;;;;;;9.94;67.15;100450.88;4872944;28;96810;-78
2024/02/16 02:49:50;;;;;;;23.65;15.80;;;;;;;9.98;66.88;100452.53;4873195;28;96631;-77
2024/02/16 02:52:15;;;;;;;21.00;13.82;;;;;;;9.97;67.01;100458.66;4872804;28;98084;-78
2024/02/16 02:54:41;;;;;;;23.42;13.88;;;;;;;9.94;67.06;100453.50;4872307;28;97926;-78
2024/02/16 02:57:07;;;;;;;20.58;14.13;;;;;;;9.91;67.51;100453.59;4900771;28;96704;-78
2024/02/16 02:59:32;;;;;;;21.00;13.77;;;;;;;9.78;67.83;100449.63;4888204;28;96638;-78
2024/02/16 03:02:16;;;;;;;22.70;14.70;;;;;;;9.66;67.66;100444.75;4882810;28;97902;-78
2024/02/16 03:04:41;;;;;;;22.52;14.18;;;;;;;9.58;68.23;100457.19;4865924;28;97657;-78
2024/02/16 03:07:08;;;;;;;18.38;13.05;;;;;;;9.52;68.90;100445.97;4863018;29;96775;-79
2024/02/16 03:09:33;;;;;;;20.70;13.65;;;;;;;9.54;68.65;100459.03;4866606;28;96749;-78
2024/02/16 03:11:59;;;;;;;19.88;13.18;;;;;;;9.63;68.29;100464.03;4878494;28;97679;-78
2024/02/16 03:14:24;;;;;;;20.98;14.35;;;;;;;9.65;68.00;100462.19;4890024;28;96756;-78
2024/02/16 03:16:50;;;;;;;20.98;14.20;;;;;;;9.57;68.04;100464.19;4901824;28;96903;-78
2024/02/16 03:19:15;;;;;;;18.80;13.68;;;;;;;9.61;68.26;100470.22;4869404;28;96800;-79
2024/02/16 03:21:41;;;;;;;19.65;14.90;;;;;;;9.52;68.17;100460.84;4897377;28;96685;-79
2024/02/16 03:24:08;;;;;;;22.08;15.20;;;;;;;9.35;68.66;100473.53;4882084;28;101713;-79
2024/02/16 03:26:34;;;;;;;23.30;14.98;;;;;;;9.41;68.38;100473.38;4880733;28;96732;-79
2024/02/16 03:28:59;;;;;;;24.17;15.60;;;;;;;9.48;68.71;100461.81;4887262;28;96779;-79
2024/02/16 03:31:26;;;;;;;22.67;14.43;;;;;;;9.44;68.80;100470.66;4863173;28;101483;-79
2024/02/16 03:33:52;;;;;;;23.95;14.32;;;;;;;9.45;68.23;100472.38;4878630;28;97035;-80
2024/02/16 03:36:18;;;;;;;23.70;15.05;;;;;;;9.41;68.64;100465.50;4864215;29;96680;-79
2024/02/16 03:39:03;;;;;;;23.02;15.43;;;;;;;9.25;68.80;100471.16;4878615;28;96777;-79
2024/02/16 03:41:28;;;;;;;22.30;14.25;;;;;;;9.33;68.47;100462.22;4862859;29;97410;-80
2024/02/16 03:43:54;;;;;;;20.50;14.57;;;;;;;9.33;68.46;100460.47;4862898;29;101690;-79
2024/02/16 03:46:20;;;;;;;23.98;15.82;;;;;;;9.38;68.67;100461.22;4862040;29;96722;-79
2024/02/16 03:48:45;;;;;;;23.05;14.73;;;;;;;9.37;68.18;100459.50;4878823;28;96624;-79
2024/02/16 03:51:24;;;;;;;21.77;14.48;;;;;;;9.47;68.43;100463.56;4877789;28;96662;-79
2024/02/16 03:57:39;;;;;;;18.45;12.38;;;;;;;9.37;68.33;100467.34;4893016;28;96777;-79
2024/02/16 04:00:06;;;;;;;22.02;14.45;;;;;;;9.36;68.32;100464.75;4900329;28;96554;-80
2024/02/16 04:02:59;;;;;;;20.95;13.52;;;;;;;9.37;68.83;100467.34;4896262;28;97248;-79
2024/02/16 04:06:08;;;;;;;23.67;13.88;;;;;;;9.26;68.66;100467.63;4882978;28;101336;-79
2024/02/16 04:08:33;;;;;;;24.30;13.98;;;;;;;9.21;68.70;100466.03;4901909;28;96608;-80
2024/02/16 04:10:59;;;;;;;19.70;14.18;;;;;;;9.11;69.09;100461.94;4883896;28;96679;-80
2024/02/16 04:13:25;;;;;;;22.42;14.45;;;;;;;9.11;68.44;100469.81;4868732;28;101710;-79
2024/02/16 04:15:50;;;;;;;24.38;14.80;;;;;;;9.01;68.80;100469.16;4880342;28;101271;-80
2024/02/16 04:18:20;;;;;;;24.58;15.27;;;;;;;9.02;68.91;100461.28;4879859;28;96897;-81
2024/02/16 04:20:46;;;;;;;25.33;16.35;;;;;;;8.91;69.24;100465.91;4884567;28;96768;-79
2024/02/16 04:23:12;;;;;;;28.42;17.27;;;;;;;8.82;69.19;100471.38;4876070;28;97531;-80
2024/02/16 04:25:38;;;;;;;26.90;17.77;;;;;;;8.78;69.75;100467.09;4851946;28;101487;-80
2024/02/16 04:28:04;;;;;;;25.85;17.30;;;;;;;8.77;69.30;100460.16;4882237;28;96780;-80
2024/02/16 04:30:30;;;;;;;26.95;17.92;;;;;;;8.65;70.27;100463.94;4855745;28;96768;-80
2024/02/16 04:32:57;;;;;;;27.95;18.38;;;;;;;8.66;69.83;100470.03;4869956;28;101301;-79
2024/02/16 04:35:23;;;;;;;28.55;19.58;;;;;;;8.69;69.21;100459.47;4878849;28;100470;-79
2024/02/16 04:37:49;;;;;;;31.77;19.88;;;;;;;8.68;69.61;100465.63;4866325;28;96962;-79
2024/02/16 04:40:15;;;;;;;29.15;19.00;;;;;;;8.71;69.17;100476.00;4883279;28;98556;-79
2024/02/16 04:42:41;;;;;;;32.10;20.00;;;;;;;8.82;69.32;100472.25;4865829;28;101914;-79
2024/02/16 04:45:07;;;;;;;29.60;19.33;;;;;;;8.75;68.84;100467.19;4875082;28;98100;-79
2024/02/16 04:47:33;;;;;;;34.53;20.58;;;;;;;8.55;69.46;100467.66;4866778;28;96882;-80
2024/02/16 04:49:58;;;;;;;29.92;21.10;;;;;;;8.55;69.84;100459.81;4867065;28;96875;-79
2024/02/16 04:52:24;;;;;;;32.78;21.20;;;;;;;8.53;69.80;100457.25;4875809;28;97590;-79
2024/02/16 04:54:49;;;;;;;36.00;21.55;;;;;;;8.40;70.31;100458.41;4882809;28;101374;-80
2024/02/16 04:57:15;;;;;;;31.35;20.73;;;;;;;8.32;70.71;100460.28;4858472;28;97021;-80
2024/02/16 04:59:41;;;;;;;31.75;21.45;;;;;;;8.37;70.25;100461.91;4889906;28;97961;-82
2024/02/16 05:02:06;;;;;;;31.80;20.73;;;;;;;8.45;69.87;100460.94;4848773;28;101608;-81
2024/02/16 05:04:32;;;;;;;33.67;21.42;;;;;;;8.40;70.14;100463.63;4876235;28;97469;-82
2024/02/16 05:06:58;;;;;;;35.17;21.20;;;;;;;8.28;70.76;100451.66;4878490;28;96742;-79
2024/02/16 05:09:26;;;;;;;31.33;21.42;;;;;;;8.28;71.23;100456.03;4871200;28;96886;-80
2024/02/16 05:11:51;;;;;;;37.60;22.48;;;;;;;8.16;70.76;100457.16;4862758;28;101005;-80
2024/02/16 05:14:17;;;;;;;33.20;22.60;;;;;;;8.22;70.82;100454.41;4880485;28;97862;-80
2024/02/16 05:16:44;;;;;;;37.65;22.92;;;;;;;8.11;71.07;100461.63;4857687;28;96739;-80
2024/02/16 05:19:09;;;;;;;30.30;20.27;;;;;;;8.05;70.97;100449.56;4868737;28;96765;-81
2024/02/16 05:21:35;;;;;;;33.58;21.50;;;;;;;7.99;71.69;100446.22;4892336;28;97596;-80
2024/02/16 05:24:00;;;;;;;35.05;21.63;;;;;;;7.87;71.69;100456.03;4873070;28;101018;-79
2024/02/16 05:26:26;;;;;;;32.70;21.17;;;;;;;7.80;72.29;100446.63;4870070;28;96893;-80
2024/02/16 05:28:51;;;;;;;32.55;21.30;;;;;;;7.84;72.24;100444.78;4866068;28;96983;-80
2024/02/16 05:31:18;;;;;;;32.38;21.23;;;;;;;7.91;72.05;100444.63;4875955;28;97628;-79
2024/02/16 05:33:49;;;;;;;32.60;21.55;;;;;;;7.90;72.01;100444.66;4888022;28;98064;-79
2024/02/16 05:36:20;;;;;;;35.90;21.67;;;;;;;7.94;71.92;100447.19;4857050;28;97119;-80
2024/02/16 05:38:48;;;;;;;30.48;21.27;;;;;;;7.87;71.42;100442.09;4880519;28;96820;-79
2024/02/16 05:41:14;;;;;;;33.63;20.10;;;;;;;7.88;71.82;100449.03;4871829;28;96991;-79
2024/02/16 05:43:39;;;;;;;39.45;20.60;;;;;;;7.80;71.94;100446.63;4871517;28;100141;-81
2024/02/16 05:46:07;;;;;;;30.65;20.50;;;;;;;7.67;72.19;100443.38;4879793;28;97338;-81
2024/02/16 05:48:37;;;;;;;32.65;19.90;;;;;;;7.61;72.70;100443.50;4871037;28;96731;-81
2024/02/16 05:51:05;;;;;;;28.50;18.95;;;;;;;7.70;72.41;100440.69;4877337;28;101516;-81
2024/02/16 05:53:34;;;;;;;31.48;20.52;;;;;;;7.81;72.46;100443.09;4864654;28;101187;-81
2024/02/16 05:56:00;;;;;;;35.00;20.08;;;;;;;7.82;72.20;100443.94;4866048;28;96909;-82
2024/02/16 05:58:26;;;;;;;36.35;19.90;;;;;;;7.79;72.16;100446.63;4875687;28;96709;-75
2024/02/16 06:00:51;;;;;;;29.35;19.23;;;;;;;7.66;72.49;100446.88;5173495;23;98276;-80
2024/02/16 07:17:12;;;;;;;20.13;13.18;;;;;;;9.04;69.88;100472.56;5030716;23;98034;-77
2024/02/16 07:19:37;;;;;;;18.38;12.88;;;;;;;8.97;70.04;100468.38;4898786;28;96878;-80
2024/02/16 07:22:03;;;;;;;19.95;12.57;;;;;;;9.08;69.89;100478.59;4894085;28;100183;-80
2024/02/16 07:24:28;;;;;;;18.90;11.10;;;;;;;9.42;69.32;100470.69;4896910;28;97466;-81
2024/02/16 07:27:00;;;;;;;16.23;11.23;;;;;;;9.85;68.15;100473.91;4878575;28;97373;-80
2024/02/16 07:29:25;;;;;;;16.05;10.57;;;;;;;10.08;67.07;100481.09;4905166;28;97236;-78
2024/02/16 07:31:52;;;;;;;15.57;10.20;;;;;;;10.46;66.45;100482.59;4886011;28;98103;-79
2024/02/16 07:45:55;;;;;;;15.27;9.20;;;;;;;12.09;61.06;100463.91;4914388;28;96524;-78
2024/02/16 07:56:26;;;;;;;14.80;9.75;;;;;;;13.03;58.55;100466.28;4915570;28;96677;-79
2024/02/16 08:02:19;;;;;;;15.35;9.30;;;;;;;13.94;56.31;100456.16;4903357;28;96801;-78
2024/02/16 08:04:49;;;;;;;15.23;10.20;;;;;;;14.10;55.74;100460.72;4906976;28;97287;-78
2024/02/16 08:07:17;;;;;;;12.68;8.73;;;;;;;14.34;54.22;100456.09;4872028;28;98211;-82
2024/02/16 08:09:47;;;;;;;16.98;8.82;;;;;;;14.43;53.76;100453.03;4892836;28;98148;-80
2024/02/16 08:12:13;;;;;;;15.63;8.88;;;;;;;14.71;53.33;100453.41;4875115;28;99695;-79
2024/02/16 08:14:42;;;;;;;15.95;9.63;;;;;;;15.09;52.25;100461.22;4851536;28;96877;-83
2024/02/16 08:17:08;;;;;;;13.07;8.93;;;;;;;15.32;51.72;100451.25;4887204;28;97442;-79
2024/02/16 08:19:36;;;;;;;14.32;8.25;;;;;;;15.80;50.44;100437.28;4869605;28;101672;-81
2024/02/16 08:22:08;;;;;;;15.20;9.10;;;;;;;16.10;49.79;100433.03;4893534;28;97505;-79
2024/02/16 08:24:37;;;;;;;16.50;9.40;;;;;;;16.39;49.51;100436.72;4887408;28;96782;-83
2024/02/16 08:27:04;;;;;;;15.68;7.90;;;;;;;16.87;48.18;100430.44;4861641;28;97021;-82
2024/02/16 08:29:29;;;;;;;12.30;8.15;;;;;;;17.08;47.17;100436.28;4893271;28;97971;-83
2024/02/16 08:31:55;;;;;;;13.65;8.77;;;;;;;17.42;46.95;100432.47;4855039;28;101426;-83
2024/02/16 08:34:21;;;;;;;10.95;8.20;;;;;;;17.48;46.00;100446.28;4879730;28;97275;-85
2024/02/16 08:36:47;;;;;;;12.70;8.45;;;;;;;17.62;45.53;100433.88;4876929;28;98167;-87
2024/02/16 08:39:47;;;;;;;;;;;;;;;;;;;;;
2024/02/16 08:42:26;;;;;;;12.45;8.13;;;;;;;17.71;45.05;100420.97;4882040;28;126156;-85
2024/02/16 08:44:52;;;;;;;14.73;7.78;;;;;;;17.24;46.19;100435.34;4876368;28;97021;-83
2024/02/16 08:47:18;;;;;;;15.18;9.30;;;;;;;16.97;46.67;100428.94;4878700;28;97012;-87
2024/02/16 08:49:43;;;;;;;17.15;8.75;;;;;;;16.69;47.67;100415.56;4890803;28;97612;-85
2024/02/16 08:52:09;;;;;;;10.48;7.95;;;;;;;16.76;47.36;100414.31;4874778;28;97814;-85
2024/02/16 08:54:35;;;;;;;19.50;7.63;;;;;;;16.46;47.80;100412.44;4890005;28;98061;-85
2024/02/16 08:57:00;;;;;;;17.20;9.30;;;;;;;16.00;49.03;100422.13;4861244;28;97178;-86
2024/02/16 08:59:27;;;;;;;15.45;8.45;;;;;;;15.84;49.62;100415.00;4888253;28;97378;-86
2024/02/16 09:01:53;;;;;;;11.13;8.15;;;;;;;15.57;49.91;100411.16;4860271;28;101544;-88
2024/02/16 09:04:18;;;;;;;12.80;7.85;;;;;;;15.37;50.23;100414.84;4877684;28;96951;-86
2024/02/16 09:06:44;;;;;;;12.30;8.00;;;;;;;15.29;50.75;100420.53;4891966;28;97131;-75
2024/02/16 09:09:10;;;;;;;9.70;6.95;;;;;;;15.16;50.88;100416.84;4878133;28;101424;-90
2024/02/16 09:11:36;;;;;;;12.73;7.65;;;;;;;15.22;50.77;100419.16;4875533;28;98310;-91
2024/02/16 09:14:01;;;;;;;12.93;7.03;;;;;;;15.78;49.37;100414.47;4878659;28;96927;-90
2024/02/16 09:16:26;;;;;;;13.00;7.53;;;;;;;16.59;47.92;100412.59;4878969;28;96875;-86
2024/02/16 09:18:52;;;;;;;13.63;6.65;;;;;;;17.63;45.44;100413.50;4878446;28;100041;-83
2024/02/16 09:21:18;;;;;;;9.30;6.47;;;;;;;17.51;45.63;100406.28;4873887;28;101851;-83
2024/02/16 09:23:43;;;;;;;11.00;7.07;;;;;;;17.45;45.42;100411.97;4861029;28;97488;-84
2024/02/16 09:26:09;;;;;;;16.23;7.50;;;;;;;17.15;45.94;100407.59;4882969;28;96923;-85
2024/02/16 09:28:41;;;;;;;9.48;6.43;;;;;;;16.47;47.04;100415.94;4888640;28;97521;-84
2024/02/16 09:31:07;;;;;;;10.93;6.85;;;;;;;15.86;48.10;100422.00;4884214;28;100109;-85
2024/02/16 09:33:33;;;;;;;12.13;6.70;;;;;;;15.68;48.95;100421.19;4906933;28;97505;-84
2024/02/16 09:35:59;;;;;;;9.98;6.78;;;;;;;15.25;49.32;100424.28;4875225;28;96960;-83
2024/02/16 09:38:24;;;;;;;12.27;6.15;;;;;;;15.22;50.25;100418.31;4869739;28;100090;-83
2024/02/16 09:40:50;;;;;;;11.25;6.68;;;;;;;15.04;50.36;100425.38;4893127;28;97595;-82
2024/02/16 09:43:27;;;;;;;12.65;7.00;;;;;;;14.99;50.73;100416.84;4878585;28;97231;-84
2024/02/16 09:45:57;;;;;;;11.02;7.10;;;;;;;14.95;51.29;100413.47;4889040;28;96788;-78
2024/02/16 09:48:26;;;;;;;10.40;6.63;;;;;;;14.81;51.37;100419.47;4884342;28;98053;-88
2024/02/16 09:50:54;;;;;;;11.70;6.07;;;;;;;14.63;52.08;100417.72;4880837;28;97688;-84
2024/02/16 09:53:21;;;;;;;9.77;6.28;;;;;;;14.55;51.85;100418.13;4890295;28;96837;-87
2024/02/16 09:55:48;;;;;;;9.07;5.75;;;;;;;14.70;52.21;100414.72;4884376;28;96894;-86
2024/02/16 09:58:17;;;;;;;16.17;6.88;;;;;;;14.81;52.06;100422.13;4888946;28;98080;-86
2024/02/16 10:00:51;;;;;;;10.85;6.25;;;;;;;15.20;53.50;100423.66;4863806;28;97582;-77
2024/02/16 10:03:22;;;;;;;11.40;5.97;;;;;;;16.84;50.57;100432.41;4890348;28;96853;-84
2024/02/16 10:05:49;;;;;;;11.57;6.25;;;;;;;17.43;46.81;100418.22;4892106;28;98570;-76
2024/02/16 10:08:15;;;;;;;14.10;6.78;;;;;;;17.50;46.43;100418.69;4873542;28;99606;-76
2024/02/16 10:10:41;;;;;;;11.07;6.68;;;;;;;17.38;46.70;100422.09;4891961;28;101468;-85
2024/02/16 10:13:08;;;;;;;13.40;5.10;;;;;;;16.95;46.13;100422.03;4880166;28;96736;-86
2024/02/16 10:15:34;;;;;;;8.02;4.65;;;;;;;16.85;46.90;100419.06;4875181;28;96949;-80
2024/02/16 10:18:03;;;;;;;9.15;5.03;;;;;;;16.66;46.91;100426.34;4891442;28;97636;-83
2024/02/16 10:20:29;;;;;;;7.63;4.97;;;;;;;16.65;46.76;100420.19;4894978;28;97051;-80
2024/02/16 10:23:08;;;;;;;13.65;5.38;;;;;;;16.59;46.27;100420.53;4894436;28;96781;-80
2024/02/16 10:25:35;;;;;;;8.82;4.60;;;;;;;16.49;46.29;100416.69;4872741;28;98172;-76
2024/02/16 10:28:06;;;;;;;8.88;3.85;;;;;;;16.16;46.37;100420.31;4881123;28;98358;-75
2024/02/16 10:30:34;;;;;;;;;;;;;;;16.15;47.02;100417.75;4884245;28;101415;-75
2024/02/16 10:33:00;;;;;;;6.82;3.83;;;;;;;16.18;46.82;100407.84;4891751;28;96887;-75
2024/02/16 10:35:28;;;;;;;10.60;4.55;;;;;;;16.33;46.24;100406.13;4882296;28;97309;-75
2024/02/16 10:37:55;;;;;;;6.47;4.15;;;;;;;16.25;46.21;100424.25;4899422;28;97552;-75
2024/02/16 10:40:22;;;;;;;7.82;3.70;;;;;;;16.09;46.71;100410.16;4890442;28;97281;-81
2024/02/16 10:42:50;;;;;;;6.07;3.85;;;;;;;15.92;46.66;100419.88;4892447;28;97185;-80
2024/02/16 10:45:16;;;;;;;6.78;4.25;;;;;;;15.75;47.26;100415.50;4871146;28;97510;-84
2024/02/16 10:47:42;;;;;;;6.35;3.63;;;;;;;15.74;47.25;100407.66;4868946;28;101362;-82
2024/02/16 10:50:09;;;;;;;7.93;3.17;;;;;;;15.67;47.22;100390.34;4898640;28;97593;-83
2024/02/16 10:52:36;;;;;;;6.43;3.70;;;;;;;15.92;47.36;100382.81;4895773;28;96909;-83
2024/02/16 10:55:03;;;;;;;5.50;3.10;;;;;;;16.17;47.11;100387.59;4890509;28;96779;-82
2024/02/16 10:57:29;;;;;;;8.30;3.20;;;;;;;16.35;46.30;100382.19;4895281;28;97422;-83
2024/02/16 10:59:56;;;;;;;6.25;3.60;;;;;;;16.32;46.29;100385.88;4866063;28;99606;-85
2024/02/16 11:02:22;;;;;;;10.07;3.95;;;;;;;16.07;46.68;100383.75;4895568;28;96833;-83
2024/02/16 11:04:50;;;;;;;4.40;3.10;;;;;;;15.98;46.69;100377.19;4906638;28;96806;-83
2024/02/16 11:07:17;;;;;;;6.45;3.60;;;;;;;16.06;46.70;100379.41;4872356;28;100966;-85
2024/02/16 11:09:44;;;;;;;5.70;3.42;;;;;;;16.06;46.16;100382.06;4902406;28;97858;-82
2024/02/16 11:12:12;;;;;;;7.55;3.30;;;;;;;15.93;46.58;100370.44;4867056;28;96944;-84
2024/02/16 11:14:42;;;;;;;6.43;3.47;;;;;;;15.86;46.64;100364.63;4890661;28;96987;-84
2024/02/16 11:17:12;;;;;;;6.05;3.75;;;;;;;15.82;47.04;100363.97;4872732;28;99148;-85
2024/02/16 11:19:41;;;;;;;9.80;3.70;;;;;;;16.02;46.95;100360.16;4888664;28;97384;-83
2024/02/16 11:22:10;;;;;;;5.63;3.45;;;;;;;15.90;46.66;100357.38;4891253;28;96776;-82
2024/02/16 11:24:37;;;;;;;6.32;3.47;;;;;;;15.79;46.72;100361.44;4900873;28;96979;-83
2024/02/16 11:27:07;;;;;;;7.85;3.67;;;;;;;15.75;46.88;100349.34;4885244;28;101264;-82
2024/02/16 11:29:36;;;;;;;12.48;3.00;;;;;;;15.81;46.91;100364.03;4883615;28;99039;-81
2024/02/16 11:32:03;;;;;;;4.72;2.85;;;;;;;15.75;46.93;100353.78;4905490;28;96938;-79
2024/02/16 11:34:29;;;;;;;9.77;3.10;;;;;;;15.79;47.21;100345.56;4876648;28;96997;-84
2024/02/16 11:36:55;;;;;;;7.40;3.58;;;;;;;15.63;46.57;100345.53;4873422;28;101676;-83
2024/02/16 11:39:22;;;;;;;9.25;3.83;;;;;;;15.68;46.87;100333.88;4901143;28;97440;-85
2024/02/16 11:41:47;;;;;;;6.18;3.88;;;;;;;15.61;47.03;100344.75;4891820;28;96796;-82
2024/02/16 11:44:16;;;;;;;7.47;4.10;;;;;;;15.58;46.97;100367.88;4875315;28;96895;-82
2024/02/16 11:46:42;;;;;;;6.50;3.20;;;;;;;15.59;47.36;100335.19;4885111;28;101899;-82
2024/02/16 11:49:08;;;;;;;10.32;3.15;;;;;;;15.52;47.55;100355.00;4903198;28;97419;-83
2024/02/16 11:51:34;;;;;;;9.35;3.42;;;;;;;15.50;47.66;100336.53;4906860;28;98119;-82
2024/02/16 11:53:59;;;;;;;7.53;3.75;;;;;;;15.53;47.66;100327.59;4896423;28;96890;-83
2024/02/16 11:56:25;;;;;;;9.70;3.20;;;;;;;15.50;46.94;100357.72;4875820;28;97973;-83
2024/02/16 11:58:52;;;;;;;7.13;3.22;;;;;;;15.49;47.04;100337.50;4885122;28;101381;-83
2024/02/16 12:01:18;;;;;;;10.52;3.55;;;;;;;15.47;47.08;100327.94;4896030;28;96950;-83
2024/02/16 12:03:43;;;;;;;11.00;4.32;;;;;;;15.44;46.82;100322.81;4893130;28;96968;-85
2024/02/16 12:06:09;;;;;;;4.53;3.00;;;;;;;15.38;46.97;100330.13;4877981;28;98685;-82
2024/02/16 12:08:35;;;;;;;5.32;3.72;;;;;;;15.38;47.33;100329.28;4902385;28;97529;-84
2024/02/16 12:11:02;;;;;;;8.00;3.35;;;;;;;15.46;47.55;100324.44;4886506;28;98308;-82
2024/02/16 12:13:27;;;;;;;6.97;3.38;;;;;;;15.47;47.44;100323.47;4908675;28;96976;-79
2024/02/16 12:15:53;;;;;;;9.15;3.72;;;;;;;15.41;47.70;100347.63;4893618;28;98388;-74
2024/02/16 12:18:25;;;;;;;6.45;3.35;;;;;;;15.33;48.08;100333.94;4899124;28;97910;-74
2024/02/16 12:21:02;;;;;;;4.35;3.28;;;;;;;15.32;48.21;100322.53;4907203;28;97267;-74
2024/02/16 12:23:28;;;;;;;6.30;3.58;;;;;;;15.38;48.10;100327.47;4907492;28;98520;-75
2024/02/16 12:25:53;;;;;;;5.15;3.40;;;;;;;15.39;47.89;100328.34;4859248;28;101135;-74
2024/02/16 12:28:24;;;;;;;7.22;3.28;;;;;;;15.45;48.10;100324.53;4894226;28;97477;-75
2024/02/16 12:30:50;;;;;;;7.03;4.37;;;;;;;15.44;47.77;100317.50;4906309;28;96845;-75
2024/02/16 12:33:16;;;;;;;5.78;3.20;;;;;;;15.38;47.24;100314.25;4898136;28;97282;-75
2024/02/16 12:35:42;;;;;;;6.28;4.10;;;;;;;15.37;47.69;100304.63;4900516;28;97843;-74
2024/02/16 12:38:07;;;;;;;6.13;3.30;;;;;;;15.39;47.51;100313.34;4874062;28;97891;-75
2024/02/16 12:40:33;;;;;;;6.97;3.55;;;;;;;15.36;47.82;100302.06;4891220;28;97249;-74
2024/02/16 12:42:58;;;;;;;4.15;2.92;;;;;;;15.32;47.76;100321.69;4901839;28;97344;-75
2024/02/16 12:45:24;;;;;;;6.05;3.17;;;;;;;15.25;47.53;100318.50;4878227;28;99189;-74
2024/02/16 12:47:50;;;;;;;10.30;3.40;;;;;;;15.29;47.62;100306.81;4903077;28;98144;-75
2024/02/16 12:50:17;;;;;;;6.32;3.47;;;;;;;15.35;47.82;100303.84;4890722;28;97534;-75
2024/02/16 12:52:43;;;;;;;6.82;4.00;;;;;;;15.36;47.70;100304.72;4906720;28;97075;-74
2024/02/16 12:55:10;;;;;;;7.38;3.45;;;;;;;15.42;48.04;100301.75;4891388;28;97524;-75
2024/02/16 12:57:36;;;;;;;6.78;3.63;;;;;;;15.45;48.03;100306.88;4906739;28;97882;-75
2024/02/16 13:00:02;;;;;;;6.78;3.67;;;;;;;15.45;48.36;100295.44;4895289;28;96796;-75